Time;durP1;ratioP1;P1;durP2;ratioP2;P2;SDS_P1;SDS_P2;PMS_P1;PMS_P2;Temp;Humidity;BMP_temperature;BMP_pressure;BME280_temperature;BME280_humidity;BME280_pressure;Samples;Min_cycle;Max_cycle;Signal;HPM_P1;HPM_P2
2022/03/09 00:00:08;;;;;;;27.70;16.67;;;;;;;;;;4417689;32;20319;-52
2022/03/09 00:02:34;;;;;;;24.07;16.00;;;;;;;;;;4416747;32;20217;-51
2022/03/09 00:05:01;;;;;;;21.43;14.47;;;;;;;;;;4432382;32;20280;-51
2022/03/09 00:07:27;;;;;;;25.03;16.33;;;;;;;;;;4408922;32;20249;-52
2022/03/09 00:09:53;;;;;;;32.03;17.40;;;;;;;;;;4402119;32;20272;-52
2022/03/09 00:12:19;;;;;;;23.63;16.47;;;;;;;;;;4422920;32;20307;-51
2022/03/09 00:14:45;;;;;;;29.63;16.00;;;;;;;;;;4404332;32;20267;-52
2022/03/09 00:17:10;;;;;;;26.70;15.33;;;;;;;;;;4396240;32;20770;-52
2022/03/09 00:19:36;;;;;;;25.93;16.83;;;;;;;;;;4411453;32;20354;-52
2022/03/09 00:22:02;;;;;;;29.77;15.50;;;;;;;;;;4407565;32;20297;-51
2022/03/09 00:24:27;;;;;;;22.67;14.40;;;;;;;;;;4410150;32;20241;-51
2022/03/09 00:26:53;;;;;;;27.23;15.43;;;;;;;;;;4414182;32;20221;-52
2022/03/09 00:29:18;;;;;;;25.87;15.17;;;;;;;;;;4417483;32;20217;-51
2022/03/09 00:31:44;;;;;;;32.20;18.30;;;;;;;;;;4410449;32;20288;-52
2022/03/09 00:34:10;;;;;;;27.07;17.40;;;;;;;;;;4417415;32;20796;-51
2022/03/09 00:36:35;;;;;;;34.03;19.03;;;;;;;;;;4416434;32;20267;-55
2022/03/09 00:39:01;;;;;;;32.47;18.27;;;;;;;;;;4417131;32;20249;-52
2022/03/09 00:41:26;;;;;;;24.77;15.40;;;;;;;;;;4411560;32;20315;-53
2022/03/09 00:43:52;;;;;;;31.53;16.83;;;;;;;;;;4416282;32;20761;-52
2022/03/09 00:46:17;;;;;;;35.93;19.00;;;;;;;;;;4416901;32;20329;-52
2022/03/09 00:48:43;;;;;;;36.63;17.67;;;;;;;;;;4417144;32;20221;-52
2022/03/09 00:51:08;;;;;;;31.97;17.10;;;;;;;;;;4403072;32;20784;-52
2022/03/09 00:53:34;;;;;;;26.40;17.27;;;;;;;;;;4421094;32;20536;-53
2022/03/09 00:55:59;;;;;;;20.83;14.43;;;;;;;;;;4426579;32;20375;-52
2022/03/09 00:58:25;;;;;;;25.27;16.60;;;;;;;;;;4422766;32;20609;-52
2022/03/09 01:00:50;;;;;;;29.83;16.63;;;;;;;;;;4391458;32;20229;-52
2022/03/09 01:03:16;;;;;;;32.70;18.80;;;;;;;;;;4407823;32;20261;-53
2022/03/09 01:05:42;;;;;;;32.27;19.60;;;;;;;;;;4431425;32;20444;-55
2022/03/09 01:08:08;;;;;;;40.00;21.47;;;;;;;;;;4416417;32;20727;-52
2022/03/09 01:10:34;;;;;;;28.37;18.40;;;;;;;;;;4416403;32;20292;-54
2022/03/09 01:12:59;;;;;;;32.20;19.63;;;;;;;;;;4407580;32;20264;-53
2022/03/09 01:15:25;;;;;;;30.77;18.20;;;;;;;;;;4418846;32;20241;-52
2022/03/09 01:17:50;;;;;;;34.23;19.97;;;;;;;;;;4415410;32;20197;-52
2022/03/09 01:20:16;;;;;;;30.43;17.90;;;;;;;;;;4415104;32;20309;-52
2022/03/09 01:22:41;;;;;;;37.50;18.33;;;;;;;;;;4401489;32;20280;-51
2022/03/09 01:25:08;;;;;;;30.57;16.73;;;;;;;;;;4403742;32;20254;-52
2022/03/09 01:27:33;;;;;;;34.13;18.50;;;;;;;;;;4414861;32;20226;-52
2022/03/09 01:29:59;;;;;;;24.20;16.90;;;;;;;;;;4417174;32;20898;-51
2022/03/09 01:32:24;;;;;;;27.80;16.13;;;;;;;;;;4402804;32;20362;-52
2022/03/09 01:34:50;;;;;;;28.00;15.03;;;;;;;;;;4402570;32;20335;-52
2022/03/09 01:37:16;;;;;;;30.40;17.30;;;;;;;;;;4405552;32;20284;-51
2022/03/09 01:39:41;;;;;;;32.57;18.53;;;;;;;;;;4401778;32;20218;-52
2022/03/09 01:42:07;;;;;;;28.93;19.33;;;;;;;;;;4413205;32;20289;-52
2022/03/09 01:44:32;;;;;;;33.17;18.90;;;;;;;;;;4419489;32;20282;-51
2022/03/09 01:46:58;;;;;;;31.20;17.57;;;;;;;;;;4431862;32;20329;-52
2022/03/09 01:49:24;;;;;;;23.17;16.27;;;;;;;;;;4425104;32;20611;-52
2022/03/09 01:51:52;;;;;;;29.03;17.73;;;;;;;;;;4408409;32;20311;-54
2022/03/09 01:54:18;;;;;;;31.90;18.10;;;;;;;;;;4407045;32;20221;-51
2022/03/09 01:56:44;;;;;;;28.77;17.80;;;;;;;;;;4416681;32;20794;-53
2022/03/09 01:59:12;;;;;;;28.53;17.00;;;;;;;;;;4416007;32;20358;-52
2022/03/09 02:01:38;;;;;;;25.43;15.83;;;;;;;;;;4413357;32;20231;-52
2022/03/09 02:04:05;;;;;;;28.00;16.57;;;;;;;;;;4416794;32;20552;-52
2022/03/09 02:06:32;;;;;;;24.30;16.13;;;;;;;;;;4415078;32;20751;-53
2022/03/09 02:11:43;;;;;;;31.00;16.97;;;;;;;;;;4403402;32;20330;-51
2022/03/09 02:14:31;;;;;;;36.57;18.67;;;;;;;;;;4402666;32;20713;-51
2022/03/09 02:16:58;;;;;;;29.43;18.33;;;;;;;;;;4409906;32;20193;-50
2022/03/09 02:19:24;;;;;;;28.80;17.03;;;;;;;;;;4421424;32;20237;-52
2022/03/09 02:22:03;;;;;;;26.17;16.53;;;;;;;;;;4416215;32;20374;-52
2022/03/09 02:24:29;;;;;;;25.90;15.27;;;;;;;;;;4391466;32;20212;-52
2022/03/09 02:26:54;;;;;;;33.13;18.83;;;;;;;;;;4416675;32;20320;-52
2022/03/09 02:29:20;;;;;;;35.17;19.30;;;;;;;;;;4416305;32;20367;-52
2022/03/09 02:31:45;;;;;;;28.87;19.20;;;;;;;;;;4397689;32;20661;-51
2022/03/09 02:34:11;;;;;;;25.70;15.93;;;;;;;;;;4398123;32;20287;-51
2022/03/09 02:36:36;;;;;;;25.10;16.03;;;;;;;;;;4405121;32;20337;-52
2022/03/09 02:39:02;;;;;;;28.03;17.00;;;;;;;;;;4419075;32;20249;-51
2022/03/09 02:41:28;;;;;;;28.70;15.87;;;;;;;;;;4404868;32;20782;-53
2022/03/09 02:43:54;;;;;;;27.70;16.53;;;;;;;;;;4428221;32;20256;-53
2022/03/09 02:46:20;;;;;;;19.67;13.77;;;;;;;;;;4418636;32;20370;-51
2022/03/09 02:48:49;;;;;;;26.00;15.87;;;;;;;;;;4419081;32;20232;-53
2022/03/09 02:51:14;;;;;;;25.30;14.67;;;;;;;;;;4418402;32;20292;-51
2022/03/09 02:53:40;;;;;;;23.77;15.13;;;;;;;;;;4418292;32;20216;-51
2022/03/09 02:56:05;;;;;;;29.97;16.57;;;;;;;;;;4414535;32;20299;-53
2022/03/09 02:58:31;;;;;;;22.10;15.37;;;;;;;;;;4392407;32;20719;-52
2022/03/09 03:00:56;;;;;;;23.53;16.37;;;;;;;;;;4418249;32;20306;-52
2022/03/09 03:03:22;;;;;;;21.60;15.33;;;;;;;;;;4419214;32;22031;-53
2022/03/09 03:05:47;;;;;;;23.33;14.93;;;;;;;;;;4394036;32;20250;-52
2022/03/09 03:08:13;;;;;;;21.23;14.07;;;;;;;;;;4403595;32;20198;-52
2022/03/09 03:10:39;;;;;;;23.40;14.93;;;;;;;;;;4414984;32;20258;-54
2022/03/09 03:13:04;;;;;;;27.57;16.13;;;;;;;;;;4409886;32;20251;-51
2022/03/09 03:15:29;;;;;;;24.90;14.90;;;;;;;;;;4417536;32;20280;-51
2022/03/09 03:17:55;;;;;;;23.60;16.10;;;;;;;;;;4418336;32;20251;-52
2022/03/09 03:20:20;;;;;;;26.20;15.70;;;;;;;;;;4418698;32;20343;-52
2022/03/09 03:22:46;;;;;;;27.67;16.73;;;;;;;;;;4417944;32;20627;-51
2022/03/09 03:25:12;;;;;;;24.77;17.17;;;;;;;;;;4418269;32;20767;-52
2022/03/09 03:27:37;;;;;;;28.77;17.40;;;;;;;;;;4414009;32;20348;-51
2022/03/09 03:30:04;;;;;;;30.33;15.67;;;;;;;;;;4415413;32;20432;-52
2022/03/09 03:32:29;;;;;;;29.40;16.43;;;;;;;;;;4410697;32;20236;-52
2022/03/09 03:34:54;;;;;;;23.77;15.47;;;;;;;;;;4418688;32;20526;-53
2022/03/09 03:37:20;;;;;;;24.93;15.73;;;;;;;;;;4418219;32;20334;-53
2022/03/09 03:39:45;;;;;;;28.23;16.93;;;;;;;;;;4418405;32;20221;-51
2022/03/09 03:42:11;;;;;;;23.97;14.83;;;;;;;;;;4418387;32;20209;-52
2022/03/09 03:44:37;;;;;;;30.83;16.57;;;;;;;;;;4433205;32;20676;-52
2022/03/09 03:47:03;;;;;;;33.10;18.67;;;;;;;;;;4417041;32;20272;-53
2022/03/09 03:49:28;;;;;;;31.67;17.17;;;;;;;;;;4418354;32;20418;-52
2022/03/09 03:51:54;;;;;;;39.90;18.40;;;;;;;;;;4417342;32;20414;-52
2022/03/09 03:54:19;;;;;;;28.33;16.40;;;;;;;;;;4410649;32;20383;-51
2022/03/09 03:56:46;;;;;;;35.23;18.87;;;;;;;;;;4410304;32;20376;-51
2022/03/09 03:59:13;;;;;;;26.77;16.60;;;;;;;;;;4417738;32;20851;-51
2022/03/09 04:01:38;;;;;;;34.43;16.73;;;;;;;;;;4397266;32;20312;-52
2022/03/09 04:04:04;;;;;;;22.37;13.00;;;;;;;;;;4417705;32;20355;-52
2022/03/09 04:06:29;;;;;;;20.53;13.77;;;;;;;;;;4418364;32;20289;-52
2022/03/09 04:08:55;;;;;;;22.23;13.70;;;;;;;;;;4417710;32;20244;-51
2022/03/09 04:11:21;;;;;;;21.17;13.27;;;;;;;;;;4404011;32;20334;-53
2022/03/09 04:13:46;;;;;;;21.70;13.87;;;;;;;;;;4401004;32;20337;-51
2022/03/09 04:16:12;;;;;;;23.07;13.33;;;;;;;;;;4402942;32;20674;-52
2022/03/09 04:18:37;;;;;;;28.53;14.20;;;;;;;;;;4415103;32;20655;-52
2022/03/09 04:21:03;;;;;;;34.83;17.87;;;;;;;;;;4403391;32;20295;-54
2022/03/09 04:23:29;;;;;;;25.93;15.77;;;;;;;;;;4417476;32;20267;-51
2022/03/09 04:25:54;;;;;;;30.23;15.47;;;;;;;;;;4403592;32;21342;-53
2022/03/09 04:28:20;;;;;;;27.50;15.07;;;;;;;;;;4417462;32;20757;-52
2022/03/09 04:30:45;;;;;;;26.03;15.10;;;;;;;;;;4417533;32;20361;-52
2022/03/09 04:33:11;;;;;;;31.70;16.83;;;;;;;;;;4416983;32;20591;-53
2022/03/09 04:35:36;;;;;;;22.77;14.10;;;;;;;;;;4417271;32;20384;-54
2022/03/09 04:38:02;;;;;;;27.73;14.57;;;;;;;;;;4410952;32;20197;-51
2022/03/09 04:40:28;;;;;;;22.93;13.03;;;;;;;;;;4417906;32;20763;-52
2022/03/09 04:42:53;;;;;;;24.80;14.13;;;;;;;;;;4417076;32;20340;-54
2022/03/09 04:45:19;;;;;;;21.97;13.50;;;;;;;;;;4417634;32;20295;-51
2022/03/09 04:47:44;;;;;;;34.60;15.80;;;;;;;;;;4403355;32;20292;-53
2022/03/09 04:50:10;;;;;;;25.07;14.10;;;;;;;;;;4417563;32;20680;-51
2022/03/09 04:52:36;;;;;;;30.33;14.90;;;;;;;;;;4410250;32;20530;-51
2022/03/09 04:55:01;;;;;;;26.67;15.23;;;;;;;;;;4416093;32;20236;-51
2022/03/09 04:57:27;;;;;;;22.47;13.83;;;;;;;;;;4416903;32;20209;-51
2022/03/09 04:59:52;;;;;;;21.00;13.03;;;;;;;;;;4417243;32;20261;-52
2022/03/09 05:02:18;;;;;;;23.07;14.17;;;;;;;;;;4409971;32;20793;-53
2022/03/09 05:04:43;;;;;;;20.43;14.00;;;;;;;;;;4416778;32;20229;-52
2022/03/09 05:07:09;;;;;;;23.53;14.67;;;;;;;;;;4416477;32;20318;-53
2022/03/09 05:09:35;;;;;;;21.97;14.63;;;;;;;;;;4417253;32;20217;-52
2022/03/09 05:12:01;;;;;;;28.43;15.57;;;;;;;;;;4396068;32;20777;-52
2022/03/09 05:14:27;;;;;;;28.67;17.37;;;;;;;;;;4401365;32;20276;-52
2022/03/09 05:16:52;;;;;;;26.10;15.63;;;;;;;;;;4408867;32;20699;-53
2022/03/09 05:19:18;;;;;;;22.73;14.87;;;;;;;;;;4416717;32;20292;-51
2022/03/09 05:21:43;;;;;;;19.83;14.33;;;;;;;;;;4410247;32;20313;-52
2022/03/09 05:24:09;;;;;;;20.33;11.87;;;;;;;;;;4416726;32;20333;-51
2022/03/09 05:26:36;;;;;;;33.37;14.90;;;;;;;;;;4398292;32;20455;-52
2022/03/09 05:29:02;;;;;;;19.13;13.57;;;;;;;;;;4416672;32;20337;-52
2022/03/09 05:31:27;;;;;;;24.33;15.10;;;;;;;;;;4421725;32;20352;-53
2022/03/09 05:33:53;;;;;;;36.43;18.87;;;;;;;;;;4417221;32;20672;-52
2022/03/09 05:36:19;;;;;;;38.63;19.00;;;;;;;;;;4402235;32;20299;-52
2022/03/09 05:38:44;;;;;;;29.07;20.03;;;;;;;;;;4416627;32;20217;-51
2022/03/09 05:41:10;;;;;;;46.90;26.30;;;;;;;;;;4412534;32;20292;-52
2022/03/09 05:43:36;;;;;;;27.27;16.40;;;;;;;;;;4413282;32;20736;-52
2022/03/09 05:46:01;;;;;;;30.00;14.03;;;;;;;;;;4413238;32;20374;-52
2022/03/09 05:48:27;;;;;;;19.43;12.27;;;;;;;;;;4412165;32;20668;-51
2022/03/09 05:50:52;;;;;;;30.90;15.17;;;;;;;;;;4414091;32;20276;-54
2022/03/09 05:53:18;;;;;;;27.70;13.67;;;;;;;;;;4411442;32;20236;-51
2022/03/09 05:55:43;;;;;;;19.03;12.50;;;;;;;;;;4416440;32;20654;-53
2022/03/09 05:58:09;;;;;;;25.10;13.17;;;;;;;;;;4416054;32;20209;-54
2022/03/09 06:00:34;;;;;;;22.03;13.13;;;;;;;;;;4416536;32;20691;-53
2022/03/09 06:03:00;;;;;;;23.27;14.00;;;;;;;;;;4409176;32;20303;-52
2022/03/09 06:05:25;;;;;;;19.87;13.80;;;;;;;;;;4416674;32;20317;-53
2022/03/09 06:07:51;;;;;;;22.53;14.00;;;;;;;;;;4417513;32;20201;-52
2022/03/09 06:10:16;;;;;;;30.33;16.80;;;;;;;;;;4419509;32;20251;-52
2022/03/09 06:12:42;;;;;;;29.13;16.10;;;;;;;;;;4398038;32;20260;-52
2022/03/09 06:15:08;;;;;;;22.83;15.40;;;;;;;;;;4418386;32;20275;-53
2022/03/09 06:17:43;;;;;;;23.43;16.07;;;;;;;;;;4409751;32;20762;-52
2022/03/09 06:20:10;;;;;;;29.40;17.60;;;;;;;;;;4417988;32;20237;-52
2022/03/09 06:22:35;;;;;;;27.57;16.03;;;;;;;;;;4418357;32;20205;-52
2022/03/09 06:25:01;;;;;;;29.17;13.73;;;;;;;;;;4404731;32;20228;-53
2022/03/09 06:27:26;;;;;;;24.80;14.93;;;;;;;;;;4413188;32;20255;-54
2022/03/09 06:29:53;;;;;;;25.73;17.10;;;;;;;;;;4416884;32;20255;-54
2022/03/09 06:32:19;;;;;;;24.70;14.83;;;;;;;;;;4417663;32;20201;-51
2022/03/09 06:34:44;;;;;;;20.43;14.00;;;;;;;;;;4418583;32;20259;-52
2022/03/09 06:37:10;;;;;;;18.97;13.70;;;;;;;;;;4410665;32;20350;-53
2022/03/09 06:39:35;;;;;;;22.27;14.90;;;;;;;;;;4418501;32;20669;-53
2022/03/09 06:42:01;;;;;;;24.60;14.30;;;;;;;;;;4417300;32;20410;-52
2022/03/09 06:44:26;;;;;;;24.17;16.93;;;;;;;;;;4415752;32;20301;-53
2022/03/09 06:46:51;;;;;;;32.03;15.40;;;;;;;;;;4414157;32;20618;-51
2022/03/09 06:49:17;;;;;;;18.37;12.50;;;;;;;;;;4415804;32;20230;-52
2022/03/09 06:51:42;;;;;;;22.87;13.63;;;;;;;;;;4416851;32;20292;-52
2022/03/09 06:54:08;;;;;;;20.43;13.30;;;;;;;;;;4417297;32;20664;-52
2022/03/09 06:56:33;;;;;;;21.83;13.77;;;;;;;;;;4411352;32;20622;-54
2022/03/09 06:58:59;;;;;;;25.53;13.77;;;;;;;;;;4415489;32;20932;-52
2022/03/09 07:01:24;;;;;;;22.83;12.07;;;;;;;;;;4417530;32;22291;-52
2022/03/09 07:03:50;;;;;;;30.10;14.77;;;;;;;;;;4417860;32;20413;-53
2022/03/09 07:06:15;;;;;;;18.70;12.33;;;;;;;;;;4413739;32;20400;-52
2022/03/09 07:08:41;;;;;;;18.97;13.83;;;;;;;;;;4414810;32;20306;-51
2022/03/09 07:11:06;;;;;;;24.80;12.30;;;;;;;;;;4405925;32;20413;-51
2022/03/09 07:13:32;;;;;;;18.17;11.77;;;;;;;;;;4404566;32;20264;-53
2022/03/09 07:15:57;;;;;;;21.83;13.53;;;;;;;;;;4415527;32;20419;-52
2022/03/09 07:18:23;;;;;;;18.40;13.33;;;;;;;;;;4411627;32;20344;-52
2022/03/09 07:20:48;;;;;;;21.83;13.37;;;;;;;;;;4408841;32;20300;-54
2022/03/09 07:23:14;;;;;;;19.73;13.03;;;;;;;;;;4409343;32;20202;-54
2022/03/09 07:25:40;;;;;;;17.93;11.33;;;;;;;;;;4408922;32;20318;-54
2022/03/09 07:28:06;;;;;;;14.77;10.07;;;;;;;;;;4410034;32;20739;-52
2022/03/09 07:30:31;;;;;;;17.87;11.97;;;;;;;;;;4416450;32;20323;-52
2022/03/09 07:32:57;;;;;;;20.10;13.07;;;;;;;;;;4417300;32;20209;-52
2022/03/09 07:35:22;;;;;;;24.37;14.67;;;;;;;;;;4417949;32;20228;-52
2022/03/09 07:37:51;;;;;;;18.47;12.63;;;;;;;;;;4408888;32;20323;-52
2022/03/09 07:40:17;;;;;;;24.77;15.13;;;;;;;;;;4405873;32;20245;-53
2022/03/09 07:42:42;;;;;;;44.93;23.70;;;;;;;;;;4420784;32;20255;-52
2022/03/09 07:45:08;;;;;;;42.90;23.50;;;;;;;;;;4422421;32;20220;-53
2022/03/09 07:47:35;;;;;;;23.20;16.73;;;;;;;;;;4403033;32;20252;-51
2022/03/09 07:50:00;;;;;;;25.97;17.87;;;;;;;;;;4417141;32;20319;-53
2022/03/09 07:52:26;;;;;;;60.33;31.20;;;;;;;;;;4406907;32;20205;-52
2022/03/09 07:54:51;;;;;;;52.13;30.07;;;;;;;;;;4403767;32;20692;-53
2022/03/09 07:57:17;;;;;;;32.30;17.47;;;;;;;;;;4417545;32;20797;-51
2022/03/09 07:59:42;;;;;;;24.00;15.87;;;;;;;;;;4417367;32;20253;-53
2022/03/09 08:02:08;;;;;;;19.77;13.23;;;;;;;;;;4416438;32;20352;-51
2022/03/09 08:04:33;;;;;;;18.93;11.47;;;;;;;;;;4403565;32;20232;-53
2022/03/09 08:06:59;;;;;;;24.53;14.67;;;;;;;;;;4395834;32;20292;-54
2022/03/09 08:09:24;;;;;;;16.70;10.63;;;;;;;;;;4400097;32;20261;-51
2022/03/09 08:11:50;;;;;;;18.37;11.70;;;;;;;;;;4406860;32;20671;-53
2022/03/09 08:14:15;;;;;;;22.37;13.57;;;;;;;;;;4402318;32;20742;-51
2022/03/09 08:16:41;;;;;;;22.60;14.67;;;;;;;;;;4402495;32;20367;-52
2022/03/09 08:19:06;;;;;;;25.77;16.63;;;;;;;;;;4416572;32;20249;-51
2022/03/09 08:21:33;;;;;;;22.47;14.40;;;;;;;;;;4416271;32;20333;-51
2022/03/09 08:23:59;;;;;;;13.97;10.97;;;;;;;;;;4414293;32;20259;-53
2022/03/09 08:26:24;;;;;;;17.17;12.03;;;;;;;;;;4409511;32;20342;-55
2022/03/09 08:28:50;;;;;;;21.90;13.83;;;;;;;;;;4412915;32;20305;-53
2022/03/09 08:31:17;;;;;;;25.27;15.03;;;;;;;;;;4414231;32;20292;-54
2022/03/09 08:33:42;;;;;;;18.30;12.53;;;;;;;;;;4416378;32;20208;-53
2022/03/09 08:36:08;;;;;;;24.67;14.00;;;;;;;;;;4413392;32;20331;-53
2022/03/09 08:38:33;;;;;;;16.43;11.17;;;;;;;;;;4416030;32;20247;-52
2022/03/09 08:40:59;;;;;;;16.77;11.47;;;;;;;;;;4416386;32;20364;-52
2022/03/09 08:43:24;;;;;;;19.97;11.73;;;;;;;;;;4416195;32;20307;-52
2022/03/09 08:45:50;;;;;;;24.10;15.40;;;;;;;;;;4414635;32;20217;-52
2022/03/09 08:48:16;;;;;;;19.90;13.97;;;;;;;;;;4396300;32;20280;-52
2022/03/09 08:50:41;;;;;;;20.57;13.20;;;;;;;;;;4415281;32;20339;-52
2022/03/09 08:53:08;;;;;;;19.40;12.83;;;;;;;;;;4394819;32;20297;-52
2022/03/09 08:55:33;;;;;;;21.00;12.80;;;;;;;;;;4411136;32;20221;-51
2022/03/09 08:58:00;;;;;;;17.20;12.00;;;;;;;;;;4406887;32;20252;-52
2022/03/09 09:00:25;;;;;;;15.13;10.33;;;;;;;;;;4403465;32;20250;-53
2022/03/09 09:02:52;;;;;;;16.03;11.03;;;;;;;;;;4394487;32;20283;-52
2022/03/09 09:05:18;;;;;;;16.93;11.03;;;;;;;;;;4409848;32;20258;-52
2022/03/09 09:07:43;;;;;;;25.67;13.90;;;;;;;;;;4397279;32;20226;-52
2022/03/09 09:10:09;;;;;;;14.77;9.50;;;;;;;;;;4409546;32;20335;-54
2022/03/09 09:12:35;;;;;;;25.50;13.47;;;;;;;;;;4404014;32;20663;-52
2022/03/09 09:15:00;;;;;;;22.77;15.03;;;;;;;;;;4412407;32;20308;-52
2022/03/09 09:17:25;;;;;;;26.87;15.07;;;;;;;;;;4411148;32;20598;-52
2022/03/09 09:19:51;;;;;;;17.83;12.77;;;;;;;;;;4410930;32;20764;-52
2022/03/09 09:22:17;;;;;;;18.67;11.87;;;;;;;;;;4397251;32;20267;-53
2022/03/09 09:24:43;;;;;;;13.83;10.23;;;;;;;;;;4412008;32;20244;-52
2022/03/09 09:27:08;;;;;;;23.10;12.90;;;;;;;;;;4405285;32;20729;-53
2022/03/09 09:29:34;;;;;;;16.33;10.40;;;;;;;;;;4412970;32;20289;-52
2022/03/09 09:32:00;;;;;;;16.33;10.57;;;;;;;;;;4414456;32;20327;-53
2022/03/09 09:34:25;;;;;;;14.60;10.40;;;;;;;;;;4414561;32;20327;-52
2022/03/09 09:36:52;;;;;;;15.03;11.10;;;;;;;;;;4400717;32;20252;-53
2022/03/09 09:39:18;;;;;;;14.30;9.87;;;;;;;;;;4390106;32;20306;-52
2022/03/09 09:41:51;;;;;;;16.80;11.27;;;;;;;;;;4405456;32;20240;-53
2022/03/09 09:44:17;;;;;;;17.40;11.17;;;;;;;;;;4406968;32;20303;-52
2022/03/09 09:46:43;;;;;;;28.67;15.60;;;;;;;;;;4406481;32;20245;-51
2022/03/09 09:49:11;;;;;;;19.53;12.20;;;;;;;;;;4406592;32;20690;-52
2022/03/09 09:51:39;;;;;;;16.80;10.70;;;;;;;;;;4394447;32;20244;-52
2022/03/09 09:54:05;;;;;;;16.13;10.03;;;;;;;;;;4409859;32;20249;-52
2022/03/09 09:56:34;;;;;;;31.27;14.30;;;;;;;;;;4415687;32;20278;-52
2022/03/09 09:59:00;;;;;;;42.93;20.67;;;;;;;;;;4403501;32;21537;-51
2022/03/09 10:01:26;;;;;;;23.13;14.37;;;;;;;;;;4410070;32;20267;-53
2022/03/09 10:03:51;;;;;;;19.80;10.47;;;;;;;;;;4392607;32;20244;-52
2022/03/09 10:06:17;;;;;;;16.23;10.77;;;;;;;;;;4411931;32;20572;-53
2022/03/09 10:09:19;;;;;;;18.57;11.83;;;;;;;;;;4415509;32;20792;-53
2022/03/09 10:11:47;;;;;;;17.30;10.20;;;;;;;;;;4414208;32;20358;-52
2022/03/09 10:14:15;;;;;;;16.13;9.13;;;;;;;;;;4396858;32;20224;-53
2022/03/09 10:17:08;;;;;;;14.47;10.40;;;;;;;;;;4412816;32;20276;-52
2022/03/09 10:19:40;;;;;;;13.93;8.13;;;;;;;;;;4398191;32;20278;-52
2022/03/09 10:22:24;;;;;;;14.10;10.03;;;;;;;;;;4392481;32;20664;-52
2022/03/09 10:24:51;;;;;;;12.73;9.17;;;;;;;;;;4402131;32;20419;-53
2022/03/09 10:27:38;;;;;;;16.97;8.87;;;;;;;;;;4401100;32;20260;-52
2022/03/09 10:30:09;;;;;;;14.67;8.50;;;;;;;;;;4403824;32;20283;-52
2022/03/09 10:32:48;;;;;;;14.47;9.43;;;;;;;;;;4400707;32;20232;-52
2022/03/09 10:35:16;;;;;;;12.40;9.10;;;;;;;;;;4402922;32;20267;-53
2022/03/09 10:37:43;;;;;;;10.37;7.70;;;;;;;;;;4402427;32;20599;-51
2022/03/09 10:40:20;;;;;;;14.00;9.53;;;;;;;;;;4403163;32;20720;-52
2022/03/09 10:42:47;;;;;;;20.23;13.57;;;;;;;;;;4401379;32;20354;-52
2022/03/09 10:45:14;;;;;;;30.00;17.73;;;;;;;;;;4403029;32;20620;-52
2022/03/09 10:47:48;;;;;;;18.47;10.80;;;;;;;;;;4406822;32;20368;-52
2022/03/09 10:50:23;;;;;;;27.93;14.47;;;;;;;;;;4417367;32;20324;-51
2022/03/09 10:52:51;;;;;;;21.07;10.93;;;;;;;;;;4412404;32;20208;-52
2022/03/09 10:55:27;;;;;;;21.33;11.27;;;;;;;;;;4415625;32;20251;-52
2022/03/09 10:58:15;;;;;;;52.17;24.67;;;;;;;;;;4410392;32;20719;-50
2022/03/09 11:00:48;;;;;;;16.30;10.57;;;;;;;;;;4401303;32;20315;-53
2022/03/09 11:03:14;;;;;;;21.60;13.33;;;;;;;;;;4401414;32;20622;-53
2022/03/09 11:05:50;;;;;;;19.93;12.67;;;;;;;;;;4401543;32;20383;-53
2022/03/09 11:08:17;;;;;;;27.97;14.70;;;;;;;;;;4400835;32;20326;-52
2022/03/09 11:10:45;;;;;;;28.47;15.70;;;;;;;;;;4401568;32;20359;-51
2022/03/09 11:13:11;;;;;;;24.67;14.77;;;;;;;;;;4396621;32;20367;-52
2022/03/09 11:15:37;;;;;;;17.43;11.07;;;;;;;;;;4401912;32;20276;-52
2022/03/09 11:18:02;;;;;;;16.07;9.43;;;;;;;;;;4398890;32;20301;-52
2022/03/09 11:20:28;;;;;;;9.67;6.87;;;;;;;;;;4419036;32;20294;-52
2022/03/09 11:22:53;;;;;;;14.17;8.13;;;;;;;;;;4408069;32;20646;-53
2022/03/09 11:25:23;;;;;;;10.40;7.33;;;;;;;;;;4418136;32;20286;-53
2022/03/09 11:27:53;;;;;;;12.13;7.90;;;;;;;;;;4400508;32;20714;-52
2022/03/09 11:30:29;;;;;;;8.97;5.47;;;;;;;;;;4409953;32;20676;-51
2022/03/09 11:32:58;;;;;;;12.47;6.23;;;;;;;;;;4399752;32;20268;-52
2022/03/09 11:35:30;;;;;;;9.63;6.03;;;;;;;;;;4407187;32;20209;-53
2022/03/09 11:37:55;;;;;;;9.40;6.10;;;;;;;;;;4400633;32;20238;-52
2022/03/09 11:40:21;;;;;;;11.27;6.70;;;;;;;;;;4415389;32;20329;-53
2022/03/09 11:42:46;;;;;;;7.47;5.30;;;;;;;;;;4412732;32;20318;-51
2022/03/09 11:45:20;;;;;;;15.10;5.63;;;;;;;;;;4408069;32;20714;-55
2022/03/09 11:48:05;;;;;;;8.17;5.77;;;;;;;;;;4402771;32;20728;-52
2022/03/09 11:50:47;;;;;;;10.17;5.83;;;;;;;;;;4429142;32;20264;-52
2022/03/09 11:53:14;;;;;;;14.43;8.30;;;;;;;;;;4421863;32;20255;-53
2022/03/09 11:55:40;;;;;;;11.50;8.00;;;;;;;;;;4401209;32;20278;-52
2022/03/09 11:58:07;;;;;;;13.00;7.50;;;;;;;;;;4407989;32;20302;-53
2022/03/09 12:00:38;;;;;;;12.90;8.13;;;;;;;;;;4392527;32;20319;-52
2022/03/09 12:03:04;;;;;;;11.87;7.00;;;;;;;;;;4415840;32;20236;-52
2022/03/09 12:05:42;;;;;;;9.43;6.43;;;;;;;;;;4402404;32;20633;-53
2022/03/09 12:08:09;;;;;;;14.07;8.27;;;;;;;;;;4416020;32;20202;-53
2022/03/09 12:10:54;;;;;;;14.60;7.93;;;;;;;;;;4416549;32;20224;-53
2022/03/09 12:13:26;;;;;;;15.47;8.63;;;;;;;;;;4409451;32;20294;-54
2022/03/09 12:16:16;;;;;;;15.80;9.47;;;;;;;;;;4402507;32;20253;-53
2022/03/09 12:18:42;;;;;;;14.03;8.83;;;;;;;;;;4410286;32;20291;-53
2022/03/09 12:21:09;;;;;;;18.80;10.27;;;;;;;;;;4413337;32;20213;-54
2022/03/09 12:23:55;;;;;;;15.67;8.27;;;;;;;;;;4426326;32;20637;-52
2022/03/09 12:26:44;;;;;;;13.63;8.87;;;;;;;;;;4410411;32;20323;-52
2022/03/09 12:29:22;;;;;;;17.47;7.90;;;;;;;;;;4391710;32;20248;-52
2022/03/09 12:32:14;;;;;;;17.63;10.03;;;;;;;;;;4415364;32;20248;-53
2022/03/09 12:34:42;;;;;;;10.87;7.90;;;;;;;;;;4412279;32;20213;-54
2022/03/09 12:37:11;;;;;;;12.90;7.43;;;;;;;;;;4397272;32;20264;-52
2022/03/09 12:39:37;;;;;;;13.73;7.57;;;;;;;;;;4416262;32;20233;-52
2022/03/09 12:42:04;;;;;;;13.77;8.53;;;;;;;;;;4410305;32;20670;-53
2022/03/09 12:44:32;;;;;;;13.73;7.50;;;;;;;;;;4408955;32;20233;-52
2022/03/09 12:47:03;;;;;;;11.83;6.87;;;;;;;;;;4408251;32;20225;-51
2022/03/09 12:49:32;;;;;;;18.97;7.70;;;;;;;;;;4403683;32;20368;-53
2022/03/09 12:52:00;;;;;;;15.97;8.63;;;;;;;;;;4394556;32;20321;-54
2022/03/09 12:54:31;;;;;;;18.00;10.43;;;;;;;;;;4408649;32;20252;-52
2022/03/09 12:56:57;;;;;;;22.27;10.60;;;;;;;;;;4412183;32;20217;-53
2022/03/09 12:59:22;;;;;;;18.93;8.30;;;;;;;;;;4406466;32;20238;-52
2022/03/09 13:01:55;;;;;;;9.80;6.63;;;;;;;;;;4396323;32;20381;-53
2022/03/09 13:04:25;;;;;;;10.53;6.47;;;;;;;;;;4407877;32;20383;-52
2022/03/09 13:06:50;;;;;;;16.83;9.67;;;;;;;;;;4407079;32;20299;-53
2022/03/09 13:09:24;;;;;;;11.63;7.50;;;;;;;;;;4394236;32;20650;-51
2022/03/09 13:11:50;;;;;;;20.93;10.07;;;;;;;;;;4394202;32;20656;-52
2022/03/09 13:14:20;;;;;;;54.97;25.03;;;;;;;;;;4415343;32;20233;-51
2022/03/09 13:16:59;;;;;;;13.73;9.23;;;;;;;;;;4413938;32;20239;-53
2022/03/09 13:19:24;;;;;;;23.43;12.80;;;;;;;;;;4414971;32;20581;-53
2022/03/09 13:21:51;;;;;;;18.93;11.10;;;;;;;;;;4400993;32;20330;-54
2022/03/09 13:24:17;;;;;;;17.27;9.67;;;;;;;;;;4420524;32;20792;-52
2022/03/09 13:26:44;;;;;;;13.10;8.40;;;;;;;;;;4409365;32;20280;-54
2022/03/09 13:29:16;;;;;;;14.60;10.77;;;;;;;;;;4411326;32;20453;-53
2022/03/09 13:31:58;;;;;;;23.50;13.37;;;;;;;;;;4387760;32;20283;-52
2022/03/09 13:34:29;;;;;;;24.80;12.13;;;;;;;;;;4421915;32;20324;-53
2022/03/09 13:37:21;;;;;;;15.80;9.70;;;;;;;;;;4414620;32;20299;-53
2022/03/09 13:39:53;;;;;;;16.90;8.50;;;;;;;;;;4406490;32;20245;-52
2022/03/09 13:42:45;;;;;;;9.60;7.17;;;;;;;;;;4411093;32;20333;-52
2022/03/09 13:45:13;;;;;;;24.33;13.73;;;;;;;;;;4400813;32;20300;-52
2022/03/09 13:47:55;;;;;;;11.13;6.80;;;;;;;;;;4414160;32;20608;-52
2022/03/09 13:50:21;;;;;;;12.97;9.03;;;;;;;;;;4414602;32;20218;-52
2022/03/09 13:52:47;;;;;;;12.13;8.13;;;;;;;;;;4403974;32;20239;-52
2022/03/09 13:55:27;;;;;;;12.83;6.83;;;;;;;;;;4398945;32;20681;-53
2022/03/09 13:58:29;;;;;;;11.73;8.40;;;;;;;;;;4408987;32;20231;-52
2022/03/09 14:01:14;;;;;;;18.70;9.83;;;;;;;;;;4399556;32;21249;-52
2022/03/09 14:03:46;;;;;;;13.30;8.17;;;;;;;;;;4415106;32;20320;-52
2022/03/09 14:06:23;;;;;;;19.40;11.67;;;;;;;;;;4404936;32;20644;-52
2022/03/09 14:08:50;;;;;;;11.80;8.93;;;;;;;;;;4422606;32;20228;-53
2022/03/09 14:11:21;;;;;;;34.93;15.53;;;;;;;;;;4415713;32;20218;-54
2022/03/09 14:13:56;;;;;;;24.47;11.57;;;;;;;;;;4405678;32;20214;-52
2022/03/09 14:16:23;;;;;;;15.80;10.60;;;;;;;;;;4404643;32;20220;-52
2022/03/09 14:18:49;;;;;;;29.47;14.33;;;;;;;;;;4414834;32;20229;-53
2022/03/09 14:21:14;;;;;;;19.20;11.43;;;;;;;;;;4413467;32;20338;-53
2022/03/09 14:23:40;;;;;;;16.90;10.83;;;;;;;;;;4412329;32;20226;-54